sensor_id;sensor_type;location;lat;lon;timestamp;pressure;altitude;pressure_sealevel;temperature
10598;BMP180;5346;48.766;8.674;2023-02-02T00:01:55;94457.00;;;2.30
10598;BMP180;5346;48.766;8.674;2023-02-02T00:04:32;94453.00;;;2.40
10598;BMP180;5346;48.766;8.674;2023-02-02T00:07:07;94456.00;;;2.30
10598;BMP180;5346;48.766;8.674;2023-02-02T00:09:34;94449.00;;;2.30
10598;BMP180;5346;48.766;8.674;2023-02-02T00:12:08;94437.00;;;2.40
10598;BMP180;5346;48.766;8.674;2023-02-02T00:14:42;94443.00;;;2.50
10598;BMP180;5346;48.766;8.674;2023-02-02T00:17:16;94446.00;;;2.40
10598;BMP180;5346;48.766;8.674;2023-02-02T00:19:50;94459.00;;;2.40
10598;BMP180;5346;48.766;8.674;2023-02-02T00:22:18;94457.00;;;2.30
10598;BMP180;5346;48.766;8.674;2023-02-02T00:24:52;94436.00;;;2.30
10598;BMP180;5346;48.766;8.674;2023-02-02T00:27:20;94443.00;;;2.30
10598;BMP180;5346;48.766;8.674;2023-02-02T00:29:55;94438.00;;;2.30
10598;BMP180;5346;48.766;8.674;2023-02-02T00:32:23;94456.00;;;2.30
10598;BMP180;5346;48.766;8.674;2023-02-02T00:34:57;94458.00;;;2.30
10598;BMP180;5346;48.766;8.674;2023-02-02T00:37:31;94453.00;;;2.50
10598;BMP180;5346;48.766;8.674;2023-02-02T00:39:59;94455.00;;;2.40
10598;BMP180;5346;48.766;8.674;2023-02-02T00:42:32;94443.00;;;2.40
10598;BMP180;5346;48.766;8.674;2023-02-02T00:45:00;94450.00;;;2.30
10598;BMP180;5346;48.766;8.674;2023-02-02T00:47:50;94461.00;;;2.30
10598;BMP180;5346;48.766;8.674;2023-02-02T00:50:23;94467.00;;;2.30
10598;BMP180;5346;48.766;8.674;2023-02-02T00:52:57;94459.00;;;2.20
10598;BMP180;5346;48.766;8.674;2023-02-02T00:55:26;94473.00;;;2.30
10598;BMP180;5346;48.766;8.674;2023-02-02T00:57:59;94473.00;;;2.20
10598;BMP180;5346;48.766;8.674;2023-02-02T01:00:33;94460.00;;;2.20
10598;BMP180;5346;48.766;8.674;2023-02-02T01:03:01;94468.00;;;2.10
10598;BMP180;5346;48.766;8.674;2023-02-02T01:05:36;94464.00;;;2.10
10598;BMP180;5346;48.766;8.674;2023-02-02T01:08:05;94443.00;;;2.00
10598;BMP180;5346;48.766;8.674;2023-02-02T01:10:33;94466.00;;;2.10
10598;BMP180;5346;48.766;8.674;2023-02-02T01:13:15;94471.00;;;2.10
10598;BMP180;5346;48.766;8.674;2023-02-02T01:15:54;94469.00;;;2.10
10598;BMP180;5346;48.766;8.674;2023-02-02T01:18:24;94498.00;;;2.10
10598;BMP180;5346;48.766;8.674;2023-02-02T01:21:04;94490.00;;;2.10
10598;BMP180;5346;48.766;8.674;2023-02-02T01:23:39;94488.00;;;2.10
10598;BMP180;5346;48.766;8.674;2023-02-02T01:26:14;94499.00;;;2.20
10598;BMP180;5346;48.766;8.674;2023-02-02T01:28:48;94476.00;;;2.10
10598;BMP180;5346;48.766;8.674;2023-02-02T01:31:17;94497.00;;;2.20
10598;BMP180;5346;48.766;8.674;2023-02-02T01:33:51;94500.00;;;2.20
10598;BMP180;5346;48.766;8.674;2023-02-02T01:36:21;94488.00;;;2.30
10598;BMP180;5346;48.766;8.674;2023-02-02T01:38:56;94491.00;;;2.10
10598;BMP180;5346;48.766;8.674;2023-02-02T01:41:25;94493.00;;;2.10
10598;BMP180;5346;48.766;8.674;2023-02-02T01:44:00;94483.00;;;2.10
10598;BMP180;5346;48.766;8.674;2023-02-02T01:46:35;94492.00;;;2.10
10598;BMP180;5346;48.766;8.674;2023-02-02T01:49:08;94498.00;;;1.90
10598;BMP180;5346;48.766;8.674;2023-02-02T01:51:53;94492.00;;;2.10
10598;BMP180;5346;48.766;8.674;2023-02-02T01:54:26;94482.00;;;2.30
10598;BMP180;5346;48.766;8.674;2023-02-02T01:57:05;94487.00;;;2.10
10598;BMP180;5346;48.766;8.674;2023-02-02T01:59:43;94501.00;;;2.10
10598;BMP180;5346;48.766;8.674;2023-02-02T02:02:20;94504.00;;;2.20
10598;BMP180;5346;48.766;8.674;2023-02-02T02:04:54;94496.00;;;2.10
10598;BMP180;5346;48.766;8.674;2023-02-02T02:07:22;94495.00;;;2.30
10598;BMP180;5346;48.766;8.674;2023-02-02T02:09:50;94489.00;;;2.30
10598;BMP180;5346;48.766;8.674;2023-02-02T02:12:23;94480.00;;;2.10
10598;BMP180;5346;48.766;8.674;2023-02-02T02:14:57;94485.00;;;2.30
10598;BMP180;5346;48.766;8.674;2023-02-02T02:18:07;94486.00;;;2.20
10598;BMP180;5346;48.766;8.674;2023-02-02T02:38:24;94478.00;;;2.30
10598;BMP180;5346;48.766;8.674;2023-02-02T02:41:00;94484.00;;;2.20
10598;BMP180;5346;48.766;8.674;2023-02-02T02:43:42;94489.00;;;2.30
10598;BMP180;5346;48.766;8.674;2023-02-02T02:46:13;94482.00;;;2.20
10598;BMP180;5346;48.766;8.674;2023-02-02T02:48:47;94490.00;;;2.30
10598;BMP180;5346;48.766;8.674;2023-02-02T02:51:48;94483.00;;;2.30
10598;BMP180;5346;48.766;8.674;2023-02-02T02:54:32;94470.00;;;2.30
10598;BMP180;5346;48.766;8.674;2023-02-02T03:03:13;94495.00;;;2.30
10598;BMP180;5346;48.766;8.674;2023-02-02T03:05:53;94497.00;;;2.30
10598;BMP180;5346;48.766;8.674;2023-02-02T03:08:38;94490.00;;;2.30
10598;BMP180;5346;48.766;8.674;2023-02-02T03:11:20;94503.00;;;2.50
10598;BMP180;5346;48.766;8.674;2023-02-02T03:13:55;94501.00;;;2.40
10598;BMP180;5346;48.766;8.674;2023-02-02T03:16:37;94491.00;;;2.40
10598;BMP180;5346;48.766;8.674;2023-02-02T03:19:05;94507.00;;;2.40
10598;BMP180;5346;48.766;8.674;2023-02-02T03:21:39;94510.00;;;2.30
10598;BMP180;5346;48.766;8.674;2023-02-02T03:24:07;94506.00;;;2.30
10598;BMP180;5346;48.766;8.674;2023-02-02T03:26:41;94508.00;;;2.40
10598;BMP180;5346;48.766;8.674;2023-02-02T03:29:09;94501.00;;;2.20
10598;BMP180;5346;48.766;8.674;2023-02-02T03:31:43;94502.00;;;2.30
10598;BMP180;5346;48.766;8.674;2023-02-02T03:34:18;94508.00;;;2.30
10598;BMP180;5346;48.766;8.674;2023-02-02T03:36:52;94495.00;;;2.30
10598;BMP180;5346;48.766;8.674;2023-02-02T03:39:26;94491.00;;;2.40
10598;BMP180;5346;48.766;8.674;2023-02-02T03:42:00;94497.00;;;2.40
10598;BMP180;5346;48.766;8.674;2023-02-02T03:44:28;94473.00;;;2.40
10598;BMP180;5346;48.766;8.674;2023-02-02T03:47:01;94486.00;;;2.40
10598;BMP180;5346;48.766;8.674;2023-02-02T03:49:29;94487.00;;;2.40
10598;BMP180;5346;48.766;8.674;2023-02-02T03:52:03;94488.00;;;2.30
10598;BMP180;5346;48.766;8.674;2023-02-02T03:54:39;94479.00;;;2.30
10598;BMP180;5346;48.766;8.674;2023-02-02T03:57:12;94476.00;;;2.30
10598;BMP180;5346;48.766;8.674;2023-02-02T03:59:40;94467.00;;;2.40
10598;BMP180;5346;48.766;8.674;2023-02-02T04:02:15;94470.00;;;2.30
10598;BMP180;5346;48.766;8.674;2023-02-02T04:04:43;94473.00;;;2.40
10598;BMP180;5346;48.766;8.674;2023-02-02T04:07:17;94477.00;;;2.40
10598;BMP180;5346;48.766;8.674;2023-02-02T04:09:44;94486.00;;;2.50
10598;BMP180;5346;48.766;8.674;2023-02-02T04:12:25;94490.00;;;2.40
10598;BMP180;5346;48.766;8.674;2023-02-02T04:15:09;94487.00;;;2.60
10598;BMP180;5346;48.766;8.674;2023-02-02T04:17:43;94483.00;;;2.50
10598;BMP180;5346;48.766;8.674;2023-02-02T04:20:11;94498.00;;;2.50
10598;BMP180;5346;48.766;8.674;2023-02-02T04:22:44;94491.00;;;2.60
10598;BMP180;5346;48.766;8.674;2023-02-02T04:25:13;94495.00;;;2.50
10598;BMP180;5346;48.766;8.674;2023-02-02T04:27:48;94471.00;;;2.50
10598;BMP180;5346;48.766;8.674;2023-02-02T04:30:16;94486.00;;;2.50
10598;BMP180;5346;48.766;8.674;2023-02-02T04:32:50;94496.00;;;2.50
10598;BMP180;5346;48.766;8.674;2023-02-02T04:35:18;94480.00;;;2.40
10598;BMP180;5346;48.766;8.674;2023-02-02T04:37:54;94489.00;;;2.50
10598;BMP180;5346;48.766;8.674;2023-02-02T04:40:22;94485.00;;;2.50
10598;BMP180;5346;48.766;8.674;2023-02-02T04:42:57;94505.00;;;2.50
10598;BMP180;5346;48.766;8.674;2023-02-02T04:45:25;94504.00;;;2.60
10598;BMP180;5346;48.766;8.674;2023-02-02T04:47:59;94503.00;;;2.60
10598;BMP180;5346;48.766;8.674;2023-02-02T04:50:26;94489.00;;;2.50
10598;BMP180;5346;48.766;8.674;2023-02-02T04:53:01;94508.00;;;2.60
10598;BMP180;5346;48.766;8.674;2023-02-02T04:55:29;94501.00;;;2.60
10598;BMP180;5346;48.766;8.674;2023-02-02T04:58:03;94474.00;;;2.60
10598;BMP180;5346;48.766;8.674;2023-02-02T05:00:37;94501.00;;;2.50
10598;BMP180;5346;48.766;8.674;2023-02-02T05:03:11;94489.00;;;2.60
10598;BMP180;5346;48.766;8.674;2023-02-02T05:05:39;94498.00;;;2.60
10598;BMP180;5346;48.766;8.674;2023-02-02T05:08:12;94487.00;;;2.60
10598;BMP180;5346;48.766;8.674;2023-02-02T05:10:40;94495.00;;;2.80
10598;BMP180;5346;48.766;8.674;2023-02-02T05:13:22;94508.00;;;2.70
10598;BMP180;5346;48.766;8.674;2023-02-02T05:15:55;94517.00;;;2.90
10598;BMP180;5346;48.766;8.674;2023-02-02T05:18:29;94493.00;;;2.70
10598;BMP180;5346;48.766;8.674;2023-02-02T05:21:01;94497.00;;;2.70
10598;BMP180;5346;48.766;8.674;2023-02-02T05:23:35;94530.00;;;2.70
10598;BMP180;5346;48.766;8.674;2023-02-02T05:26:14;94513.00;;;2.70
10598;BMP180;5346;48.766;8.674;2023-02-02T05:28:43;94527.00;;;2.90
10598;BMP180;5346;48.766;8.674;2023-02-02T05:31:17;94522.00;;;2.80
10598;BMP180;5346;48.766;8.674;2023-02-02T05:33:45;94520.00;;;2.80
10598;BMP180;5346;48.766;8.674;2023-02-02T05:36:19;94512.00;;;2.70
10598;BMP180;5346;48.766;8.674;2023-02-02T05:38:47;94525.00;;;2.70
10598;BMP180;5346;48.766;8.674;2023-02-02T05:41:21;94527.00;;;2.70
10598;BMP180;5346;48.766;8.674;2023-02-02T05:43:58;94535.00;;;2.70
10598;BMP180;5346;48.766;8.674;2023-02-02T05:46:26;94538.00;;;2.80
10598;BMP180;5346;48.766;8.674;2023-02-02T05:49:01;94529.00;;;2.60
10598;BMP180;5346;48.766;8.674;2023-02-02T05:54:14;94554.00;;;2.60
10598;BMP180;5346;48.766;8.674;2023-02-02T05:56:53;94558.00;;;2.70
10598;BMP180;5346;48.766;8.674;2023-02-02T05:59:29;94562.00;;;2.60
10598;BMP180;5346;48.766;8.674;2023-02-02T06:01:56;94561.00;;;2.60
10598;BMP180;5346;48.766;8.674;2023-02-02T06:04:30;94570.00;;;2.70
10598;BMP180;5346;48.766;8.674;2023-02-02T06:07:18;94558.00;;;2.50
10598;BMP180;5346;48.766;8.674;2023-02-02T06:09:51;94560.00;;;2.60
10598;BMP180;5346;48.766;8.674;2023-02-02T06:12:19;94563.00;;;2.70
10598;BMP180;5346;48.766;8.674;2023-02-02T06:15:07;94577.00;;;2.60
10598;BMP180;5346;48.766;8.674;2023-02-02T06:17:35;94559.00;;;2.40
10598;BMP180;5346;48.766;8.674;2023-02-02T06:20:10;94568.00;;;2.60
10598;BMP180;5346;48.766;8.674;2023-02-02T06:22:37;94557.00;;;2.60
10598;BMP180;5346;48.766;8.674;2023-02-02T06:25:11;94568.00;;;2.70
10598;BMP180;5346;48.766;8.674;2023-02-02T06:27:39;94573.00;;;2.60
10598;BMP180;5346;48.766;8.674;2023-02-02T06:30:14;94564.00;;;2.70
10598;BMP180;5346;48.766;8.674;2023-02-02T06:32:42;94571.00;;;2.50
10598;BMP180;5346;48.766;8.674;2023-02-02T06:35:16;94557.00;;;2.50
10598;BMP180;5346;48.766;8.674;2023-02-02T06:37:44;94572.00;;;2.40
10598;BMP180;5346;48.766;8.674;2023-02-02T06:40:17;94582.00;;;2.40
10598;BMP180;5346;48.766;8.674;2023-02-02T06:42:45;94555.00;;;2.50
10598;BMP180;5346;48.766;8.674;2023-02-02T06:45:19;94589.00;;;2.50
10598;BMP180;5346;48.766;8.674;2023-02-02T06:47:47;94563.00;;;2.40
10598;BMP180;5346;48.766;8.674;2023-02-02T06:50:21;94564.00;;;2.50
10598;BMP180;5346;48.766;8.674;2023-02-02T06:52:54;94566.00;;;2.40
10598;BMP180;5346;48.766;8.674;2023-02-02T06:55:29;94577.00;;;2.50
10598;BMP180;5346;48.766;8.674;2023-02-02T06:58:03;94569.00;;;2.50
10598;BMP180;5346;48.766;8.674;2023-02-02T07:00:37;94590.00;;;2.50
10598;BMP180;5346;48.766;8.674;2023-02-02T07:03:04;94576.00;;;2.40
10598;BMP180;5346;48.766;8.674;2023-02-02T07:05:39;94574.00;;;2.50
10598;BMP180;5346;48.766;8.674;2023-02-02T07:08:15;94585.00;;;2.40
10598;BMP180;5346;48.766;8.674;2023-02-02T07:10:50;94571.00;;;2.40
10598;BMP180;5346;48.766;8.674;2023-02-02T07:13:45;94551.00;;;2.40
10598;BMP180;5346;48.766;8.674;2023-02-02T07:16:26;94559.00;;;2.50
10598;BMP180;5346;48.766;8.674;2023-02-02T07:19:00;94564.00;;;2.50
10598;BMP180;5346;48.766;8.674;2023-02-02T07:21:28;94569.00;;;2.40
10598;BMP180;5346;48.766;8.674;2023-02-02T07:24:08;94566.00;;;2.50
10598;BMP180;5346;48.766;8.674;2023-02-02T07:26:36;94575.00;;;2.50
10598;BMP180;5346;48.766;8.674;2023-02-02T07:29:13;94587.00;;;2.60
10598;BMP180;5346;48.766;8.674;2023-02-02T07:31:48;94576.00;;;2.60
10598;BMP180;5346;48.766;8.674;2023-02-02T07:34:22;94576.00;;;2.50
10598;BMP180;5346;48.766;8.674;2023-02-02T07:36:50;94597.00;;;2.50
10598;BMP180;5346;48.766;8.674;2023-02-02T07:39:25;94589.00;;;2.50
10598;BMP180;5346;48.766;8.674;2023-02-02T07:41:59;94603.00;;;2.60
10598;BMP180;5346;48.766;8.674;2023-02-02T07:44:27;94597.00;;;2.70
10598;BMP180;5346;48.766;8.674;2023-02-02T07:47:02;94602.00;;;2.50
10598;BMP180;5346;48.766;8.674;2023-02-02T07:49:30;94601.00;;;2.70
10598;BMP180;5346;48.766;8.674;2023-02-02T07:52:04;94591.00;;;2.70
10598;BMP180;5346;48.766;8.674;2023-02-02T07:54:39;94597.00;;;2.70
10598;BMP180;5346;48.766;8.674;2023-02-02T07:57:15;94592.00;;;2.70
10598;BMP180;5346;48.766;8.674;2023-02-02T07:59:43;94574.00;;;2.70
10598;BMP180;5346;48.766;8.674;2023-02-02T08:02:24;94582.00;;;2.80
10598;BMP180;5346;48.766;8.674;2023-02-02T08:04:52;94590.00;;;2.80
10598;BMP180;5346;48.766;8.674;2023-02-02T08:07:26;94588.00;;;2.90
10598;BMP180;5346;48.766;8.674;2023-02-02T08:09:54;94595.00;;;3.00
10598;BMP180;5346;48.766;8.674;2023-02-02T08:12:35;94600.00;;;2.90
10598;BMP180;5346;48.766;8.674;2023-02-02T08:15:17;94598.00;;;2.90
10598;BMP180;5346;48.766;8.674;2023-02-02T08:17:52;94597.00;;;2.90
10598;BMP180;5346;48.766;8.674;2023-02-02T08:20:19;94586.00;;;2.90
10598;BMP180;5346;48.766;8.674;2023-02-02T08:22:47;94609.00;;;2.90
10598;BMP180;5346;48.766;8.674;2023-02-02T08:25:21;94612.00;;;2.70
10598;BMP180;5346;48.766;8.674;2023-02-02T08:27:55;94617.00;;;2.70
10598;BMP180;5346;48.766;8.674;2023-02-02T08:30:25;94617.00;;;2.90
10598;BMP180;5346;48.766;8.674;2023-02-02T08:32:59;94623.00;;;3.10
10598;BMP180;5346;48.766;8.674;2023-02-02T08:35:33;94613.00;;;3.00
10598;BMP180;5346;48.766;8.674;2023-02-02T08:38:00;94633.00;;;3.00
10598;BMP180;5346;48.766;8.674;2023-02-02T08:40:38;94623.00;;;3.00
10598;BMP180;5346;48.766;8.674;2023-02-02T08:43:12;94631.00;;;2.80
10598;BMP180;5346;48.766;8.674;2023-02-02T08:45:43;94633.00;;;2.80
10598;BMP180;5346;48.766;8.674;2023-02-02T08:48:31;94626.00;;;2.90
10598;BMP180;5346;48.766;8.674;2023-02-02T08:51:08;94631.00;;;2.80
10598;BMP180;5346;48.766;8.674;2023-02-02T08:53:43;94636.00;;;2.70
10598;BMP180;5346;48.766;8.674;2023-02-02T08:56:17;94657.00;;;2.60
10598;BMP180;5346;48.766;8.674;2023-02-02T08:58:53;94664.00;;;2.60
10598;BMP180;5346;48.766;8.674;2023-02-02T09:01:24;94671.00;;;2.70
10598;BMP180;5346;48.766;8.674;2023-02-02T09:04:06;94680.00;;;2.80
10598;BMP180;5346;48.766;8.674;2023-02-02T09:06:36;94683.00;;;2.70
10598;BMP180;5346;48.766;8.674;2023-02-02T09:09:13;94676.00;;;2.80
10598;BMP180;5346;48.766;8.674;2023-02-02T09:11:42;94675.00;;;2.60
10598;BMP180;5346;48.766;8.674;2023-02-02T09:14:16;94694.00;;;2.70
10598;BMP180;5346;48.766;8.674;2023-02-02T09:16:43;94664.00;;;2.70
10598;BMP180;5346;48.766;8.674;2023-02-02T09:19:18;94689.00;;;2.70
10598;BMP180;5346;48.766;8.674;2023-02-02T09:21:52;94675.00;;;2.70
10598;BMP180;5346;48.766;8.674;2023-02-02T09:24:19;94666.00;;;2.80
10598;BMP180;5346;48.766;8.674;2023-02-02T09:26:54;94670.00;;;2.70
10598;BMP180;5346;48.766;8.674;2023-02-02T09:29:22;94658.00;;;2.80
10598;BMP180;5346;48.766;8.674;2023-02-02T09:31:56;94657.00;;;2.90
10598;BMP180;5346;48.766;8.674;2023-02-02T09:34:30;94679.00;;;2.90
10598;BMP180;5346;48.766;8.674;2023-02-02T09:37:06;94670.00;;;2.80
10598;BMP180;5346;48.766;8.674;2023-02-02T09:39:34;94693.00;;;3.00
10598;BMP180;5346;48.766;8.674;2023-02-02T09:42:20;94672.00;;;2.90
10598;BMP180;5346;48.766;8.674;2023-02-02T09:45:07;94671.00;;;3.00
10598;BMP180;5346;48.766;8.674;2023-02-02T09:47:54;94680.00;;;3.00
10598;BMP180;5346;48.766;8.674;2023-02-02T09:53:26;94685.00;;;3.10
10598;BMP180;5346;48.766;8.674;2023-02-02T09:56:00;94690.00;;;3.20
10598;BMP180;5346;48.766;8.674;2023-02-02T10:01:46;94693.00;;;2.90
10598;BMP180;5346;48.766;8.674;2023-02-02T10:07:55;94711.00;;;3.10
10598;BMP180;5346;48.766;8.674;2023-02-02T10:10:19;94671.00;;;3.00
10598;BMP180;5346;48.766;8.674;2023-02-02T10:13:27;94689.00;;;3.00
10598;BMP180;5346;48.766;8.674;2023-02-02T10:16:14;94706.00;;;3.10
10598;BMP180;5346;48.766;8.674;2023-02-02T10:19:09;94700.00;;;3.20
10598;BMP180;5346;48.766;8.674;2023-02-02T10:21:58;94698.00;;;3.00
10598;BMP180;5346;48.766;8.674;2023-02-02T10:24:28;94700.00;;;3.10
10598;BMP180;5346;48.766;8.674;2023-02-02T10:27:16;94700.00;;;2.90
10598;BMP180;5346;48.766;8.674;2023-02-02T10:29:59;94688.00;;;2.90
10598;BMP180;5346;48.766;8.674;2023-02-02T10:32:52;94704.00;;;2.80
10598;BMP180;5346;48.766;8.674;2023-02-02T10:35:41;94703.00;;;2.90
10598;BMP180;5346;48.766;8.674;2023-02-02T10:38:23;94717.00;;;3.00
10598;BMP180;5346;48.766;8.674;2023-02-02T10:41:24;94720.00;;;2.90
10598;BMP180;5346;48.766;8.674;2023-02-02T10:44:08;94736.00;;;2.90
10598;BMP180;5346;48.766;8.674;2023-02-02T10:46:51;94735.00;;;2.80
10598;BMP180;5346;48.766;8.674;2023-02-02T10:49:34;94732.00;;;2.80
10598;BMP180;5346;48.766;8.674;2023-02-02T10:52:14;94728.00;;;2.90
10598;BMP180;5346;48.766;8.674;2023-02-02T10:54:53;94727.00;;;3.00
10598;BMP180;5346;48.766;8.674;2023-02-02T11:00:49;94729.00;;;2.90
10598;BMP180;5346;48.766;8.674;2023-02-02T11:03:22;94731.00;;;3.00
10598;BMP180;5346;48.766;8.674;2023-02-02T11:06:00;94720.00;;;3.00
10598;BMP180;5346;48.766;8.674;2023-02-02T11:08:49;94735.00;;;3.30
10598;BMP180;5346;48.766;8.674;2023-02-02T11:11:45;94729.00;;;3.30
10598;BMP180;5346;48.766;8.674;2023-02-02T11:17:38;94707.00;;;3.30
10598;BMP180;5346;48.766;8.674;2023-02-02T11:20:32;94719.00;;;3.40
10598;BMP180;5346;48.766;8.674;2023-02-02T11:23:05;94712.00;;;3.60
10598;BMP180;5346;48.766;8.674;2023-02-02T11:25:40;94726.00;;;3.30
10598;BMP180;5346;48.766;8.674;2023-02-02T11:28:19;94729.00;;;3.30
10598;BMP180;5346;48.766;8.674;2023-02-02T11:30:54;94716.00;;;3.20
10598;BMP180;5346;48.766;8.674;2023-02-02T11:33:41;94725.00;;;3.40
10598;BMP180;5346;48.766;8.674;2023-02-02T11:36:20;94735.00;;;3.30
10598;BMP180;5346;48.766;8.674;2023-02-02T11:38:48;94733.00;;;3.40
10598;BMP180;5346;48.766;8.674;2023-02-02T11:41:22;94739.00;;;3.40
10598;BMP180;5346;48.766;8.674;2023-02-02T11:43:54;94737.00;;;3.40
10598;BMP180;5346;48.766;8.674;2023-02-02T11:46:31;94740.00;;;3.40
10598;BMP180;5346;48.766;8.674;2023-02-02T11:49:15;94739.00;;;3.40
10598;BMP180;5346;48.766;8.674;2023-02-02T11:52:01;94730.00;;;3.50
10598;BMP180;5346;48.766;8.674;2023-02-02T11:54:39;94717.00;;;3.60
10598;BMP180;5346;48.766;8.674;2023-02-02T11:57:25;94708.00;;;3.70
10598;BMP180;5346;48.766;8.674;2023-02-02T12:02:47;94701.00;;;3.40
10598;BMP180;5346;48.766;8.674;2023-02-02T12:07:59;94695.00;;;3.50
10598;BMP180;5346;48.766;8.674;2023-02-02T12:10:40;94705.00;;;3.40
10598;BMP180;5346;48.766;8.674;2023-02-02T12:13:56;94704.00;;;3.40
10598;BMP180;5346;48.766;8.674;2023-02-02T12:19:47;94698.00;;;3.40
10598;BMP180;5346;48.766;8.674;2023-02-02T12:33:54;94716.00;;;3.00
10598;BMP180;5346;48.766;8.674;2023-02-02T12:39:12;94708.00;;;3.10
10598;BMP180;5346;48.766;8.674;2023-02-02T12:45:01;94726.00;;;3.00
10598;BMP180;5346;48.766;8.674;2023-02-02T12:47:46;94719.00;;;3.00
10598;BMP180;5346;48.766;8.674;2023-02-02T12:53:27;94717.00;;;3.00
10598;BMP180;5346;48.766;8.674;2023-02-02T12:56:25;94734.00;;;2.80
10598;BMP180;5346;48.766;8.674;2023-02-02T13:05:00;94721.00;;;3.00
10598;BMP180;5346;48.766;8.674;2023-02-02T13:07:48;94715.00;;;3.10
10598;BMP180;5346;48.766;8.674;2023-02-02T13:10:40;94714.00;;;3.00
10598;BMP180;5346;48.766;8.674;2023-02-02T13:13:41;94720.00;;;3.00
10598;BMP180;5346;48.766;8.674;2023-02-02T13:16:24;94729.00;;;2.90
10598;BMP180;5346;48.766;8.674;2023-02-02T13:19:10;94737.00;;;3.00
10598;BMP180;5346;48.766;8.674;2023-02-02T13:21:46;94738.00;;;3.00
10598;BMP180;5346;48.766;8.674;2023-02-02T13:24:19;94730.00;;;3.00
10598;BMP180;5346;48.766;8.674;2023-02-02T13:26:57;94744.00;;;3.10
10598;BMP180;5346;48.766;8.674;2023-02-02T13:29:51;94751.00;;;3.20
10598;BMP180;5346;48.766;8.674;2023-02-02T13:32:35;94752.00;;;2.90
10598;BMP180;5346;48.766;8.674;2023-02-02T13:35:17;94746.00;;;3.00
10598;BMP180;5346;48.766;8.674;2023-02-02T13:37:59;94738.00;;;2.90
10598;BMP180;5346;48.766;8.674;2023-02-02T13:40:40;94745.00;;;3.00
10598;BMP180;5346;48.766;8.674;2023-02-02T13:43:24;94743.00;;;3.20
10598;BMP180;5346;48.766;8.674;2023-02-02T13:51:41;94743.00;;;3.10
10598;BMP180;5346;48.766;8.674;2023-02-02T14:02:49;94734.00;;;3.20
10598;BMP180;5346;48.766;8.674;2023-02-02T14:05:33;94745.00;;;3.10
10598;BMP180;5346;48.766;8.674;2023-02-02T14:08:21;94741.00;;;3.50
10598;BMP180;5346;48.766;8.674;2023-02-02T14:11:00;94744.00;;;3.40
10598;BMP180;5346;48.766;8.674;2023-02-02T14:14:13;94764.00;;;3.30
10598;BMP180;5346;48.766;8.674;2023-02-02T14:19:57;94745.00;;;3.20
10598;BMP180;5346;48.766;8.674;2023-02-02T14:22:45;94763.00;;;3.30
10598;BMP180;5346;48.766;8.674;2023-02-02T14:28:12;94754.00;;;3.50
10598;BMP180;5346;48.766;8.674;2023-02-02T14:31:26;94764.00;;;3.40
10598;BMP180;5346;48.766;8.674;2023-02-02T14:34:28;94773.00;;;3.30
10598;BMP180;5346;48.766;8.674;2023-02-02T14:43:21;94785.00;;;3.40
10598;BMP180;5346;48.766;8.674;2023-02-02T14:49:12;94786.00;;;3.10
10598;BMP180;5346;48.766;8.674;2023-02-02T14:51:59;94778.00;;;3.40
10598;BMP180;5346;48.766;8.674;2023-02-02T14:54:39;94783.00;;;3.30
10598;BMP180;5346;48.766;8.674;2023-02-02T14:57:27;94793.00;;;3.30
10598;BMP180;5346;48.766;8.674;2023-02-02T15:00:02;94781.00;;;3.10
10598;BMP180;5346;48.766;8.674;2023-02-02T15:02:37;94797.00;;;3.30
10598;BMP180;5346;48.766;8.674;2023-02-02T15:08:26;94787.00;;;3.10
10598;BMP180;5346;48.766;8.674;2023-02-02T15:11:05;94789.00;;;3.00
10598;BMP180;5346;48.766;8.674;2023-02-02T15:14:14;94789.00;;;3.10
10598;BMP180;5346;48.766;8.674;2023-02-02T15:26:22;94804.00;;;3.30
10598;BMP180;5346;48.766;8.674;2023-02-02T15:29:02;94803.00;;;3.30
10598;BMP180;5346;48.766;8.674;2023-02-02T15:31:50;94807.00;;;3.40
10598;BMP180;5346;48.766;8.674;2023-02-02T15:34:42;94811.00;;;3.40
10598;BMP180;5346;48.766;8.674;2023-02-02T15:37:25;94820.00;;;3.50
10598;BMP180;5346;48.766;8.674;2023-02-02T15:40:02;94813.00;;;3.60
10598;BMP180;5346;48.766;8.674;2023-02-02T15:42:45;94812.00;;;3.40
10598;BMP180;5346;48.766;8.674;2023-02-02T15:45:29;94815.00;;;3.60
10598;BMP180;5346;48.766;8.674;2023-02-02T15:48:30;94803.00;;;3.40
10598;BMP180;5346;48.766;8.674;2023-02-02T15:51:04;94813.00;;;3.50
10598;BMP180;5346;48.766;8.674;2023-02-02T15:58:59;94845.00;;;3.40
10598;BMP180;5346;48.766;8.674;2023-02-02T16:01:29;94840.00;;;3.30
10598;BMP180;5346;48.766;8.674;2023-02-02T16:04:23;94830.00;;;3.40
10598;BMP180;5346;48.766;8.674;2023-02-02T16:06:59;94847.00;;;3.30
10598;BMP180;5346;48.766;8.674;2023-02-02T16:09:33;94845.00;;;3.20
10598;BMP180;5346;48.766;8.674;2023-02-02T16:12:14;94867.00;;;3.30
10598;BMP180;5346;48.766;8.674;2023-02-02T16:15:19;94869.00;;;3.30
10598;BMP180;5346;48.766;8.674;2023-02-02T16:18:05;94871.00;;;3.30
10598;BMP180;5346;48.766;8.674;2023-02-02T16:20:45;94870.00;;;3.30
10598;BMP180;5346;48.766;8.674;2023-02-02T16:23:27;94865.00;;;3.30
10598;BMP180;5346;48.766;8.674;2023-02-02T16:26:05;94890.00;;;3.30
10598;BMP180;5346;48.766;8.674;2023-02-02T16:28:34;94883.00;;;3.40
10598;BMP180;5346;48.766;8.674;2023-02-02T16:31:02;94886.00;;;3.10
10598;BMP180;5346;48.766;8.674;2023-02-02T16:33:37;94890.00;;;3.30
10598;BMP180;5346;48.766;8.674;2023-02-02T16:36:25;94888.00;;;3.20
10598;BMP180;5346;48.766;8.674;2023-02-02T16:39:02;94910.00;;;3.10
10598;BMP180;5346;48.766;8.674;2023-02-02T16:41:47;94938.00;;;3.10
10598;BMP180;5346;48.766;8.674;2023-02-02T16:44:43;94937.00;;;3.10
10598;BMP180;5346;48.766;8.674;2023-02-02T16:52:59;94963.00;;;3.00
10598;BMP180;5346;48.766;8.674;2023-02-02T16:55:34;94950.00;;;3.10
10598;BMP180;5346;48.766;8.674;2023-02-02T16:58:20;94975.00;;;3.10
10598;BMP180;5346;48.766;8.674;2023-02-02T17:01:07;94979.00;;;3.20
10598;BMP180;5346;48.766;8.674;2023-02-02T17:03:50;94991.00;;;3.20
10598;BMP180;5346;48.766;8.674;2023-02-02T17:06:32;94991.00;;;3.10
10598;BMP180;5346;48.766;8.674;2023-02-02T17:09:34;94994.00;;;3.10
10598;BMP180;5346;48.766;8.674;2023-02-02T17:15:30;95005.00;;;2.80
10598;BMP180;5346;48.766;8.674;2023-02-02T17:18:11;95004.00;;;2.90
10598;BMP180;5346;48.766;8.674;2023-02-02T17:20:39;95013.00;;;2.90
10598;BMP180;5346;48.766;8.674;2023-02-02T17:23:15;95011.00;;;2.90
10598;BMP180;5346;48.766;8.674;2023-02-02T17:25:50;95020.00;;;2.80
10598;BMP180;5346;48.766;8.674;2023-02-02T17:28:21;95017.00;;;2.90
10598;BMP180;5346;48.766;8.674;2023-02-02T17:31:04;95015.00;;;2.80
10598;BMP180;5346;48.766;8.674;2023-02-02T17:33:34;95009.00;;;2.80
10598;BMP180;5346;48.766;8.674;2023-02-02T17:36:12;95014.00;;;2.80
10598;BMP180;5346;48.766;8.674;2023-02-02T17:38:40;95013.00;;;2.70
10598;BMP180;5346;48.766;8.674;2023-02-02T17:41:14;95024.00;;;2.80
10598;BMP180;5346;48.766;8.674;2023-02-02T17:43:48;95019.00;;;2.90
10598;BMP180;5346;48.766;8.674;2023-02-02T17:46:16;95021.00;;;2.90